< < Back
Terminal Aerodrome Forecast


Current Version              Previous Versions:   1  2  3  4  5  6  7  8  9  

Terminal Aerodrome Forecast

100
FTUS42 KGSP 280534
TAFAND
TAF
KAND 280534Z 2806/2906 19003KT P6SM VCSH OVC120
     FM281200 00000KT P6SM -SHRA VCTS BKN017CB
     FM281400 02003KT P6SM -SHRA VCTS BKN027CB
     FM281900 03004KT P6SM BKN110
     FM282200 00000KT P6SM BKN250=



Latest METAR

328
SAUS70 KWBC 282300
MTRAND
METAR KAND 282256Z AUTO 14004KT 10SM CLR 28/18 A2997 RMK AO2 SLP137
T02780183


USA.gov is the U.S. government's official web portal to all federal, state and local government web resources and services.